Time;durP1;ratioP1;P1;durP2;ratioP2;P2;SDS_P1;SDS_P2;PMS_P1;PMS_P2;Temp;Humidity;BMP_temperature;BMP_pressure;BME280_temperature;BME280_humidity;BME280_pressure;Samples;Min_cycle;Max_cycle;Signal;HPM_P1;HPM_P2
2023/04/14 00:02:19;;;;;;;2.67;2.25;;;15.90;53.70;;;;;;5073740;28;20189;-74
2023/04/14 00:04:53;;;;;;;1.88;1.65;;;15.90;54.10;;;;;;5073603;28;20198;-72
2023/04/14 00:07:18;;;;;;;2.05;1.65;;;15.80;53.80;;;;;;5073884;28;20179;-75
2023/04/14 00:09:44;;;;;;;2.35;1.60;;;15.90;53.80;;;;;;5073372;28;20177;-75
2023/04/14 00:12:10;;;;;;;2.28;1.70;;;15.80;53.70;;;;;;5073514;28;20190;-77
2023/04/14 00:14:35;;;;;;;2.40;1.40;;;15.80;53.80;;;;;;5073925;28;20213;-82
2023/04/14 00:17:01;;;;;;;1.77;1.67;;;15.80;53.90;;;;;;5073160;28;20256;-76
2023/04/14 00:19:26;;;;;;;1.60;1.45;;;15.80;53.90;;;;;;5073689;28;20269;-78
2023/04/14 00:21:52;;;;;;;1.58;1.48;;;15.80;53.80;;;;;;5073682;28;20249;-77
2023/04/14 00:24:17;;;;;;;2.40;1.88;;;15.80;53.90;;;;;;5072529;28;20261;-76
2023/04/14 00:26:43;;;;;;;2.22;1.80;;;15.80;53.80;;;;;;5073624;28;20759;-73
2023/04/14 00:29:08;;;;;;;1.65;1.40;;;15.80;53.90;;;;;;5073297;28;20173;-75
2023/04/14 00:31:34;;;;;;;2.22;1.50;;;15.80;54.00;;;;;;5072798;28;20257;-74
2023/04/14 00:34:00;;;;;;;2.65;1.60;;;15.80;53.90;;;;;;5073508;28;20649;-75
2023/04/14 00:36:25;;;;;;;1.98;1.52;;;15.80;54.00;;;;;;5072712;28;20777;-79
2023/04/14 00:38:51;;;;;;;1.90;1.70;;;15.70;54.00;;;;;;5073000;28;20621;-74
2023/04/14 00:41:16;;;;;;;2.05;1.80;;;15.80;54.00;;;;;;5073118;28;20209;-77
2023/04/14 00:43:42;;;;;;;2.03;1.40;;;15.70;54.00;;;;;;5073368;28;20175;-73
2023/04/14 00:46:07;;;;;;;1.13;1.02;;;15.80;54.00;;;;;;5072192;28;20198;-73
2023/04/14 00:48:33;;;;;;;2.03;1.50;;;15.70;53.90;;;;;;5072111;28;20174;-76
2023/04/14 00:50:58;;;;;;;2.72;1.40;;;15.70;54.00;;;;;;5072277;28;20179;-74
2023/04/14 00:53:24;;;;;;;1.33;1.20;;;15.70;54.00;;;;;;5071243;28;20201;-77
2023/04/14 00:55:50;;;;;;;1.40;1.20;;;15.70;54.00;;;;;;5072075;28;20668;-77
2023/04/14 00:58:16;;;;;;;2.47;1.45;;;15.70;54.00;;;;;;5072854;28;20253;-78
2023/04/14 01:00:41;;;;;;;2.30;1.30;;;15.70;53.90;;;;;;5071333;28;20257;-73
2023/04/14 01:03:07;;;;;;;1.48;1.38;;;15.70;54.00;;;;;;5071356;28;20178;-73
2023/04/14 01:05:33;;;;;;;1.80;1.33;;;15.70;54.00;;;;;;5071987;28;20259;-74
2023/04/14 01:07:59;;;;;;;2.50;1.23;;;15.70;54.00;;;;;;5072381;28;20174;-75
2023/04/14 01:10:25;;;;;;;1.52;1.40;;;15.70;54.00;;;;;;5071698;28;20189;-85
2023/04/14 01:13:13;;;;;;;1.23;1.13;;;15.70;54.00;;;;;;5071234;28;20173;-76
2023/04/14 01:15:40;;;;;;;1.77;1.67;;;15.70;54.00;;;;;;5071748;28;20182;-76
2023/04/14 01:18:44;;;;;;;1.30;1.20;;;15.70;54.00;;;;;;5072815;28;20179;-80
2023/04/14 01:21:13;;;;;;;2.47;1.50;;;15.70;54.00;;;;;;5071410;28;20218;-81
2023/04/14 01:23:49;;;;;;;1.95;1.30;;;15.60;54.00;;;;;;5072818;28;20221;-76
2023/04/14 01:26:27;;;;;;;1.70;1.08;;;15.60;53.90;;;;;;5071482;28;20214;-78
2023/04/14 01:29:31;;;;;;;1.95;1.40;;;15.60;54.00;;;;;;5071119;28;20174;-72
2023/04/14 01:32:04;;;;;;;1.20;1.10;;;15.60;54.00;;;;;;5049630;28;20193;-73
2023/04/14 01:34:38;;;;;;;2.97;1.50;;;15.60;54.00;;;;;;5070873;28;20228;-76
2023/04/14 01:37:16;;;;;;;1.85;1.48;;;15.60;54.00;;;;;;5072851;28;20209;-74
2023/04/14 01:39:44;;;;;;;1.77;1.40;;;15.60;54.10;;;;;;5072935;28;20195;-77
2023/04/14 01:42:12;;;;;;;1.45;1.20;;;15.60;54.00;;;;;;5070562;28;20258;-75
2023/04/14 01:44:38;;;;;;;2.17;1.42;;;15.60;54.00;;;;;;5071335;28;20178;-74
2023/04/14 01:47:04;;;;;;;1.92;1.30;;;15.60;54.00;;;;;;5071646;28;20232;-73
2023/04/14 01:49:31;;;;;;;1.83;1.20;;;15.50;54.00;;;;;;5074977;28;20197;-75
2023/04/14 01:51:57;;;;;;;1.13;1.00;;;15.60;54.00;;;;;;5075635;28;20185;-74
2023/04/14 01:54:22;;;;;;;1.50;1.20;;;15.50;54.00;;;;;;5075291;28;20174;-81
2023/04/14 01:56:49;;;;;;;1.83;1.30;;;15.50;54.00;;;;;;5074733;28;20536;-75
2023/04/14 01:59:14;;;;;;;1.63;1.30;;;15.50;54.00;;;;;;5074928;28;20181;-77
2023/04/14 02:01:40;;;;;;;1.50;1.40;;;15.50;54.00;;;;;;5076647;28;20250;-73
2023/04/14 02:04:06;;;;;;;1.60;1.30;;;15.50;54.00;;;;;;5075319;28;20261;-74
2023/04/14 02:06:31;;;;;;;1.33;1.23;;;15.50;54.00;;;;;;5075223;28;20246;-82
2023/04/14 02:09:02;;;;;;;1.85;1.08;;;15.50;54.00;;;;;;5074327;28;20595;-76
2023/04/14 02:11:29;;;;;;;1.88;1.40;;;15.50;54.10;;;;;;5074766;28;20247;-81
2023/04/14 02:13:54;;;;;;;2.17;1.55;;;15.50;54.10;;;;;;5074837;28;20204;-78
2023/04/14 02:16:20;;;;;;;2.63;1.30;;;15.50;54.10;;;;;;5073674;28;20178;-83
2023/04/14 02:18:45;;;;;;;2.15;1.50;;;15.50;54.10;;;;;;5074750;28;20175;-78
2023/04/14 02:21:11;;;;;;;1.55;1.45;;;15.50;54.10;;;;;;5074423;28;20222;-80
2023/04/14 02:23:37;;;;;;;1.40;1.30;;;15.50;54.10;;;;;;5074191;28;20174;-77
2023/04/14 02:26:16;;;;;;;1.23;1.13;;;15.40;54.00;;;;;;5074636;28;20213;-74
2023/04/14 02:29:15;;;;;;;1.30;1.20;;;15.40;54.00;;;;;;5074893;28;20170;-73
2023/04/14 02:31:55;;;;;;;1.30;1.20;;;15.40;54.00;;;;;;5068758;28;20178;-72
2023/04/14 02:34:23;;;;;;;1.90;1.40;;;15.40;54.10;;;;;;5074382;28;20633;-74
2023/04/14 02:36:52;;;;;;;1.52;1.42;;;15.40;54.00;;;;;;5074522;28;20621;-77
2023/04/14 02:39:24;;;;;;;2.45;1.38;;;15.40;54.10;;;;;;5073503;28;20523;-76
2023/04/14 02:41:57;;;;;;;2.08;1.40;;;15.40;54.10;;;;;;5074580;28;20629;-75
2023/04/14 02:44:25;;;;;;;2.20;1.33;;;15.40;54.10;;;;;;5073415;28;20582;-80
2023/04/14 02:46:56;;;;;;;1.95;1.30;;;15.40;54.20;;;;;;5074391;28;20190;-72
2023/04/14 02:49:22;;;;;;;2.25;1.38;;;15.40;54.10;;;;;;5073971;28;20231;-77
2023/04/14 02:51:47;;;;;;;1.98;1.40;;;15.40;54.10;;;;;;5073826;28;20206;-73
2023/04/14 02:54:13;;;;;;;1.52;1.08;;;15.40;54.10;;;;;;5074143;28;20170;-78
2023/04/14 02:56:39;;;;;;;1.88;1.30;;;15.40;54.10;;;;;;5074420;28;20255;-74
2023/04/14 02:59:04;;;;;;;1.88;1.35;;;15.40;54.20;;;;;;5073932;28;20178;-72
2023/04/14 03:01:31;;;;;;;1.40;1.08;;;15.40;54.10;;;;;;5075382;28;20178;-76
2023/04/14 03:03:57;;;;;;;2.60;1.40;;;15.40;54.10;;;;;;5074038;28;20236;-75
2023/04/14 03:06:23;;;;;;;1.40;1.30;;;15.40;54.20;;;;;;5073221;28;20210;-78
2023/04/14 03:08:49;;;;;;;2.47;1.50;;;15.30;54.20;;;;;;5074186;28;20224;-77
2023/04/14 03:11:14;;;;;;;1.65;1.20;;;15.30;54.10;;;;;;5073774;28;20178;-78
2023/04/14 03:13:40;;;;;;;1.80;1.40;;;15.30;54.20;;;;;;5073320;28;20194;-79
2023/04/14 03:16:06;;;;;;;2.00;1.15;;;15.30;54.20;;;;;;5073438;28;20782;-76
2023/04/14 03:18:32;;;;;;;1.42;1.08;;;15.30;54.20;;;;;;5073826;28;20171;-88
2023/04/14 03:20:59;;;;;;;2.45;1.40;;;15.30;54.20;;;;;;5074146;28;20226;-77
2023/04/14 03:23:25;;;;;;;1.60;1.50;;;15.30;54.10;;;;;;5073604;28;20258;-80
2023/04/14 03:25:50;;;;;;;2.65;1.48;;;15.30;54.20;;;;;;5073685;28;20300;-74
2023/04/14 03:28:18;;;;;;;2.15;1.45;;;15.30;54.10;;;;;;5072674;28;20196;-77
2023/04/14 03:30:46;;;;;;;1.70;1.27;;;15.30;54.20;;;;;;5073580;28;20680;-72
2023/04/14 03:33:13;;;;;;;1.83;1.33;;;15.30;54.20;;;;;;5073223;28;20182;-71
2023/04/14 03:35:38;;;;;;;1.45;1.27;;;15.30;54.20;;;;;;5072955;28;20181;-75
2023/04/14 03:38:07;;;;;;;1.65;1.55;;;15.30;54.20;;;;;;5073617;28;20253;-78
2023/04/14 03:40:34;;;;;;;1.55;1.45;;;15.30;54.20;;;;;;5073940;28;20629;-80
2023/04/14 03:43:01;;;;;;;2.47;1.40;;;15.20;54.20;;;;;;5073321;28;20642;-73
2023/04/14 03:45:27;;;;;;;2.70;1.30;;;15.20;54.10;;;;;;5072903;28;20206;-76
2023/04/14 03:47:56;;;;;;;1.63;1.25;;;15.30;54.20;;;;;;5072727;28;20181;-74
2023/04/14 03:50:22;;;;;;;2.25;1.77;;;15.20;54.10;;;;;;5073069;28;20197;-81
2023/04/14 03:52:49;;;;;;;1.35;1.25;;;15.20;54.20;;;;;;5073316;28;20210;-73
2023/04/14 03:55:16;;;;;;;2.33;1.33;;;15.20;54.20;;;;;;5072547;28;20182;-79
2023/04/14 03:57:42;;;;;;;1.60;1.50;;;15.20;54.20;;;;;;5073230;28;20256;-80
2023/04/14 04:00:09;;;;;;;1.65;1.55;;;15.20;54.20;;;;;;5072632;28;20175;-76
2023/04/14 04:02:35;;;;;;;1.80;1.70;;;15.20;54.20;;;;;;5071495;28;20244;-84
2023/04/14 04:05:00;;;;;;;2.47;1.50;;;15.20;54.20;;;;;;5072982;28;20207;-74
2023/04/14 04:07:26;;;;;;;1.75;1.30;;;15.20;54.20;;;;;;5072703;28;20174;-77
2023/04/14 04:09:51;;;;;;;1.38;1.27;;;15.20;54.20;;;;;;5073367;28;20223;-83
2023/04/14 04:12:19;;;;;;;1.60;1.35;;;15.20;54.20;;;;;;5071752;28;20177;-84
2023/04/14 04:14:45;;;;;;;1.92;1.42;;;15.20;54.20;;;;;;5073002;28;20186;-81
2023/04/14 04:17:12;;;;;;;1.52;1.30;;;15.20;54.20;;;;;;5073164;28;20224;-83
2023/04/14 04:19:38;;;;;;;1.77;1.58;;;15.10;54.20;;;;;;5073992;28;20189;-82
2023/04/14 04:22:03;;;;;;;4.28;1.67;;;15.20;54.20;;;;;;5072707;28;20222;-78
2023/04/14 04:24:31;;;;;;;1.98;1.40;;;15.10;54.20;;;;;;5072805;28;20696;-85
2023/04/14 04:26:57;;;;;;;3.38;1.90;;;15.10;54.90;;;;;;5072337;28;20194;-75
2023/04/14 04:29:22;;;;;;;1.60;1.50;;;15.10;54.30;;;;;;5072203;28;20641;-81
2023/04/14 04:31:48;;;;;;;2.70;1.73;;;15.10;54.20;;;;;;5071913;28;20202;-73
2023/04/14 04:34:14;;;;;;;2.15;1.30;;;15.10;54.20;;;;;;5071983;28;20566;-75
2023/04/14 04:36:40;;;;;;;2.25;1.50;;;15.10;54.20;;;;;;5071611;28;20601;-77
2023/04/14 04:39:05;;;;;;;1.92;1.63;;;15.10;54.20;;;;;;5072013;28;20203;-79
2023/04/14 04:41:31;;;;;;;2.30;1.60;;;15.10;54.30;;;;;;5072466;28;20174;-77
2023/04/14 04:43:57;;;;;;;1.73;1.60;;;15.10;54.30;;;;;;5072649;28;20261;-74
2023/04/14 04:46:42;;;;;;;1.40;1.27;;;15.10;54.30;;;;;;5073125;28;20213;-78
2023/04/14 04:49:07;;;;;;;1.58;1.48;;;15.10;54.30;;;;;;5073091;28;20174;-73
2023/04/14 04:51:33;;;;;;;2.45;1.70;;;15.10;54.20;;;;;;5072583;28;20261;-82
2023/04/14 04:53:59;;;;;;;1.95;1.50;;;15.00;54.20;;;;;;5073532;28;20253;-80
2023/04/14 04:56:25;;;;;;;2.10;1.38;;;15.10;54.20;;;;;;5072987;28;20245;-80
2023/04/14 04:58:50;;;;;;;1.83;1.38;;;15.10;54.30;;;;;;5072430;28;20625;-75
2023/04/14 05:01:18;;;;;;;2.55;1.40;;;15.10;54.20;;;;;;5072775;28;20309;-74
2023/04/14 05:03:44;;;;;;;1.83;1.33;;;15.20;54.10;;;;;;5073284;28;20253;-75
2023/04/14 05:06:09;;;;;;;1.50;1.40;;;15.20;54.00;;;;;;5071940;28;20335;-77
2023/04/14 05:08:35;;;;;;;2.47;1.50;;;15.30;53.80;;;;;;5074187;28;20628;-83
2023/04/14 05:11:00;;;;;;;2.03;1.20;;;15.40;53.70;;;;;;5073616;28;20669;-80
2023/04/14 05:13:26;;;;;;;2.03;1.38;;;15.40;53.60;;;;;;5072209;28;20272;-89
2023/04/14 05:15:51;;;;;;;1.38;1.23;;;15.50;53.50;;;;;;5072929;28;20524;-85
2023/04/14 05:18:17;;;;;;;1.63;1.30;;;15.60;53.40;;;;;;5071293;28;20171;-79
2023/04/14 05:20:43;;;;;;;1.58;1.40;;;15.70;53.30;;;;;;5071973;28;20853;-77
2023/04/14 05:23:08;;;;;;;1.75;1.58;;;15.80;53.20;;;;;;5072282;28;20641;-84
2023/04/14 05:25:34;;;;;;;2.33;1.50;;;15.90;53.20;;;;;;5072899;28;20561;-81
2023/04/14 05:27:59;;;;;;;1.20;1.10;;;15.90;53.00;;;;;;5072380;28;20594;-77
2023/04/14 05:30:26;;;;;;;2.08;1.83;;;16.00;52.90;;;;;;5072705;28;20514;-74
2023/04/14 05:32:51;;;;;;;2.70;1.60;;;16.10;53.50;;;;;;5072789;28;20201;-73
2023/04/14 05:35:17;;;;;;;1.83;1.58;;;16.10;52.80;;;;;;5071789;28;20609;-74
2023/04/14 05:37:42;;;;;;;1.40;1.30;;;16.20;52.70;;;;;;5072562;28;20175;-78
2023/04/14 05:40:08;;;;;;;1.60;1.50;;;16.20;52.60;;;;;;5071707;28;20174;-76
2023/04/14 05:42:34;;;;;;;2.70;1.98;;;16.30;52.60;;;;;;5072822;28;20175;-76
2023/04/14 05:44:59;;;;;;;1.67;1.55;;;16.30;52.50;;;;;;5072826;28;20206;-75
2023/04/14 05:47:25;;;;;;;3.45;1.73;;;16.30;52.50;;;;;;5071771;28;20173;-75
2023/04/14 05:49:50;;;;;;;2.63;1.90;;;16.40;52.40;;;;;;5072732;28;20192;-73
2023/04/14 05:52:16;;;;;;;2.65;1.75;;;16.40;52.40;;;;;;5072358;28;20257;-78
2023/04/14 05:54:41;;;;;;;2.30;1.77;;;16.40;52.40;;;;;;5071861;28;20593;-76
2023/04/14 05:57:07;;;;;;;1.85;1.60;;;16.40;52.50;;;;;;5072286;28;20672;-76
2023/04/14 05:59:32;;;;;;;1.85;1.63;;;16.40;52.40;;;;;;5072841;28;20546;-76
2023/04/14 06:02:01;;;;;;;1.60;1.50;;;16.40;52.50;;;;;;5071723;28;20660;-72
2023/04/14 06:04:26;;;;;;;1.70;1.58;;;16.50;52.60;;;;;;5072262;28;20221;-82
2023/04/14 06:06:52;;;;;;;1.77;1.50;;;16.60;52.50;;;;;;5072186;28;20661;-75
2023/04/14 06:09:17;;;;;;;1.45;1.20;;;16.60;52.40;;;;;;5071242;28;20250;-79
2023/04/14 06:11:43;;;;;;;1.70;1.60;;;16.80;52.20;;;;;;5072587;28;20170;-79
2023/04/14 06:14:08;;;;;;;1.90;1.60;;;17.00;52.00;;;;;;5072181;28;20174;-81
2023/04/14 06:16:34;;;;;;;2.17;1.75;;;17.20;51.80;;;;;;5071609;28;20174;-78
2023/04/14 06:19:00;;;;;;;1.70;1.42;;;17.40;51.50;;;;;;5072339;28;20178;-81
2023/04/14 06:21:25;;;;;;;1.73;1.52;;;17.50;51.20;;;;;;5071907;28;20232;-82
2023/04/14 06:23:51;;;;;;;1.95;1.55;;;17.50;51.10;;;;;;5071470;28;20734;-78
2023/04/14 06:26:16;;;;;;;1.90;1.63;;;17.50;51.10;;;;;;5071834;28;20693;-77
2023/04/14 06:28:42;;;;;;;2.50;1.73;;;17.50;51.80;;;;;;5071040;28;20182;-73
2023/04/14 06:31:07;;;;;;;2.08;1.52;;;17.40;51.30;;;;;;5071384;28;20217;-72
2023/04/14 06:33:33;;;;;;;2.78;1.70;;;17.40;51.40;;;;;;5072196;28;20175;-76
2023/04/14 06:35:58;;;;;;;1.58;1.48;;;17.40;51.40;;;;;;5075090;28;20175;-75
2023/04/14 06:38:24;;;;;;;4.25;2.03;;;17.50;51.40;;;;;;5075172;28;20484;-81
2023/04/14 06:40:50;;;;;;;1.70;1.58;;;17.50;51.40;;;;;;5075601;28;20178;-77
2023/04/14 06:43:16;;;;;;;1.52;1.42;;;17.50;51.40;;;;;;5074862;28;20216;-73
2023/04/14 06:45:42;;;;;;;2.88;1.80;;;17.60;51.40;;;;;;5075626;28;20676;-73
2023/04/14 06:48:08;;;;;;;1.67;1.52;;;17.60;51.50;;;;;;5075398;28;20232;-73
2023/04/14 06:50:33;;;;;;;3.55;2.10;;;17.50;51.70;;;;;;5074588;28;20182;-76
2023/04/14 06:52:59;;;;;;;1.75;1.52;;;17.60;51.80;;;;;;5075275;28;20174;-69
2023/04/14 06:55:24;;;;;;;1.73;1.50;;;17.60;51.80;;;;;;5075117;28;20528;-70
2023/04/14 06:57:50;;;;;;;2.05;1.55;;;17.60;52.00;;;;;;5074628;28;20551;-76
2023/04/14 07:00:16;;;;;;;5.10;2.38;;;17.60;52.00;;;;;;5075188;28;20253;-74
2023/04/14 07:02:41;;;;;;;2.65;1.73;;;17.60;52.20;;;;;;5075237;28;20554;-75
2023/04/14 07:05:07;;;;;;;4.22;1.98;;;17.70;52.30;;;;;;5073627;28;20194;-74
2023/04/14 07:07:36;;;;;;;3.50;1.98;;;17.70;52.10;;;;;;5074818;28;20525;-72
2023/04/14 07:10:02;;;;;;;2.80;1.90;;;17.80;52.70;;;;;;5075186;28;20175;-72
2023/04/14 07:12:27;;;;;;;5.82;1.50;;;17.80;52.30;;;;;;5074087;28;20178;-72
2023/04/14 07:14:53;;;;;;;5.10;1.77;;;17.90;52.20;;;;;;5074674;28;20668;-74
2023/04/14 07:17:18;;;;;;;1.60;1.40;;;17.80;52.20;;;;;;5074557;28;20228;-74
2023/04/14 07:19:45;;;;;;;2.90;1.83;;;17.80;52.40;;;;;;5073982;28;20178;-73
2023/04/14 07:22:10;;;;;;;6.25;1.58;;;17.70;52.50;;;;;;5074235;28;20246;-72
2023/04/14 07:24:36;;;;;;;2.03;1.48;;;17.70;52.70;;;;;;5074955;28;20761;-73
2023/04/14 07:27:01;;;;;;;3.17;2.00;;;17.60;52.80;;;;;;5073902;28;20209;-73
2023/04/14 07:29:28;;;;;;;4.30;1.77;;;17.50;53.00;;;;;;5074538;28;20312;-75
2023/04/14 07:31:53;;;;;;;3.35;1.70;;;17.50;53.10;;;;;;5074548;28;20182;-81
2023/04/14 07:34:19;;;;;;;3.10;1.67;;;17.50;53.20;;;;;;5073503;28;20221;-74
2023/04/14 07:36:45;;;;;;;2.65;1.40;;;17.50;53.30;;;;;;5074545;28;20626;-75
2023/04/14 07:39:10;;;;;;;2.42;2.03;;;17.40;53.30;;;;;;5073187;28;20179;-74
2023/04/14 07:41:36;;;;;;;3.42;1.63;;;17.30;53.40;;;;;;5073834;28;20236;-73
2023/04/14 07:44:01;;;;;;;4.68;1.88;;;17.40;53.50;;;;;;5074294;28;20232;-75
2023/04/14 07:46:27;;;;;;;2.03;1.58;;;17.40;53.60;;;;;;5073610;28;20214;-74
2023/04/14 07:48:52;;;;;;;2.75;1.55;;;17.30;53.60;;;;;;5073720;28;20235;-73
2023/04/14 07:51:18;;;;;;;3.95;1.48;;;17.30;53.70;;;;;;5074175;28;20194;-72
2023/04/14 07:53:44;;;;;;;3.58;2.30;;;17.20;53.80;;;;;;5073317;28;20170;-73
2023/04/14 07:56:10;;;;;;;2.65;1.70;;;17.20;53.90;;;;;;5074025;28;20257;-74
2023/04/14 07:58:35;;;;;;;1.73;1.60;;;17.20;54.00;;;;;;5074043;28;20174;-75
2023/04/14 08:01:02;;;;;;;2.95;1.83;;;17.20;54.70;;;;;;5073359;28;20550;-76
2023/04/14 08:03:28;;;;;;;2.53;1.52;;;17.10;54.10;;;;;;5073667;28;20174;-72
2023/04/14 08:05:54;;;;;;;3.10;1.45;;;17.10;54.10;;;;;;5073802;28;20305;-73
2023/04/14 08:08:19;;;;;;;3.50;1.63;;;17.10;54.20;;;;;;5073008;28;20174;-71
2023/04/14 08:10:45;;;;;;;1.92;1.60;;;17.10;54.30;;;;;;5073956;28;20175;-72
2023/04/14 08:13:10;;;;;;;2.50;1.90;;;17.10;54.30;;;;;;5073470;28;20213;-73
2023/04/14 08:15:36;;;;;;;4.35;1.80;;;17.10;54.30;;;;;;5073030;28;20174;-72
2023/04/14 08:18:01;;;;;;;2.60;1.60;;;17.10;54.40;;;;;;5073756;28;20224;-73
2023/04/14 08:20:27;;;;;;;3.70;1.48;;;17.10;54.30;;;;;;5073143;28;20174;-72
2023/04/14 08:22:53;;;;;;;2.50;1.90;;;17.10;54.40;;;;;;5072860;28;20186;-72
2023/04/14 08:25:19;;;;;;;2.20;1.60;;;17.10;54.40;;;;;;5073290;28;20299;-72
2023/04/14 08:27:45;;;;;;;2.55;1.52;;;17.10;54.40;;;;;;5073477;28;20170;-75
2023/04/14 08:30:10;;;;;;;2.85;1.63;;;17.10;54.40;;;;;;5072666;28;20179;-76
2023/04/14 08:32:36;;;;;;;2.80;1.38;;;17.10;54.50;;;;;;5073371;28;20179;-76
2023/04/14 08:35:02;;;;;;;2.60;1.45;;;17.10;54.50;;;;;;5073348;28;20171;-80
2023/04/14 08:37:27;;;;;;;2.60;1.40;;;17.10;54.50;;;;;;5072263;28;20170;-74
2023/04/14 08:39:53;;;;;;;2.55;1.90;;;17.10;54.50;;;;;;5073545;28;20206;-76
2023/04/14 08:42:19;;;;;;;3.20;1.38;;;17.10;54.50;;;;;;5073281;28;20166;-73
2023/04/14 08:44:46;;;;;;;1.52;1.13;;;17.10;54.50;;;;;;5071400;28;20182;-77
2023/04/14 08:47:11;;;;;;;1.95;1.55;;;17.10;54.50;;;;;;5073129;28;20600;-77
2023/04/14 08:49:41;;;;;;;2.42;1.70;;;17.10;54.50;;;;;;5079809;28;20204;-73
2023/04/14 08:52:11;;;;;;;2.30;1.52;;;17.10;54.50;;;;;;5057071;28;20720;-73
2023/04/14 08:54:40;;;;;;;1.92;1.50;;;17.20;54.60;;;;;;5093560;28;20281;-73
2023/04/14 08:57:10;;;;;;;1.83;1.23;;;17.20;54.50;;;;;;5081821;28;20181;-74
2023/04/14 08:59:36;;;;;;;4.10;1.70;;;17.20;54.50;;;;;;5073034;28;20173;-74
2023/04/14 09:02:04;;;;;;;2.67;1.70;;;17.20;54.50;;;;;;5071530;28;20261;-78
2023/04/14 09:04:30;;;;;;;2.28;1.60;;;17.20;54.50;;;;;;5071198;28;20178;-72
2023/04/14 09:06:55;;;;;;;2.00;1.45;;;17.20;54.50;;;;;;5090549;28;20205;-73
2023/04/14 09:09:21;;;;;;;2.00;1.40;;;17.20;54.50;;;;;;5091670;28;20169;-72
2023/04/14 09:11:47;;;;;;;2.22;1.50;;;17.20;54.50;;;;;;5091002;28;20740;-73
2023/04/14 09:14:12;;;;;;;4.68;1.70;;;17.20;54.40;;;;;;5092271;28;20676;-73
2023/04/14 09:16:38;;;;;;;1.90;1.50;;;17.30;54.50;;;;;;5091565;28;20265;-72
2023/04/14 09:19:03;;;;;;;1.77;1.60;;;17.30;54.50;;;;;;5091106;28;20272;-75
2023/04/14 09:21:29;;;;;;;6.00;2.45;;;17.30;54.50;;;;;;5091339;28;20225;-72
2023/04/14 09:23:55;;;;;;;5.00;1.95;;;17.30;54.50;;;;;;5072872;28;20222;-72
2023/04/14 09:26:21;;;;;;;6.15;2.00;;;17.30;54.50;;;;;;5053729;28;20628;-73
2023/04/14 09:28:46;;;;;;;3.85;2.00;;;17.30;54.40;;;;;;5072495;28;20190;-74
2023/04/14 09:31:12;;;;;;;4.18;2.03;;;17.30;54.30;;;;;;5072346;28;20224;-77
2023/04/14 09:33:46;;;;;;;4.43;1.90;;;17.30;55.00;;;;;;5070898;28;20277;-75
2023/04/14 09:36:22;;;;;;;3.47;1.92;;;17.40;54.40;;;;;;5071385;28;20174;-74
2023/04/14 09:38:49;;;;;;;4.68;2.17;;;17.40;54.30;;;;;;5072660;28;20186;-74
2023/04/14 09:41:21;;;;;;;5.60;1.90;;;17.40;54.30;;;;;;5070705;28;20645;-74
2023/04/14 09:43:47;;;;;;;4.53;1.80;;;17.40;54.20;;;;;;5072492;28;20522;-76
2023/04/14 09:46:14;;;;;;;7.28;2.10;;;17.40;54.20;;;;;;5071601;28;20218;-76
2023/04/14 09:48:53;;;;;;;4.97;1.80;;;17.40;54.10;;;;;;5072848;28;20178;-74
2023/04/14 09:51:26;;;;;;;4.63;2.15;;;17.40;54.10;;;;;;5072188;28;20171;-75
2023/04/14 09:53:51;;;;;;;2.60;1.80;;;17.40;54.10;;;;;;5071728;28;20179;-73
2023/04/14 09:56:17;;;;;;;2.70;1.80;;;17.40;54.10;;;;;;5075974;28;20235;-75
2023/04/14 09:58:43;;;;;;;5.32;2.03;;;17.50;54.10;;;;;;5092515;28;20181;-78
2023/04/14 10:01:14;;;;;;;3.67;1.77;;;17.40;54.10;;;;;;5091689;28;20253;-79
2023/04/14 10:03:40;;;;;;;2.40;1.58;;;17.50;54.10;;;;;;5092554;28;20181;-75
2023/04/14 10:06:16;;;;;;;5.60;1.45;;;17.50;54.00;;;;;;5092241;28;20237;-74
2023/04/14 10:08:43;;;;;;;3.63;1.55;;;17.50;54.00;;;;;;5091781;28;20253;-72
2023/04/14 10:11:18;;;;;;;3.05;1.73;;;17.50;54.00;;;;;;5095189;28;20177;-72
2023/04/14 10:13:45;;;;;;;3.15;1.80;;;17.60;53.90;;;;;;5096358;28;20187;-73
2023/04/14 10:16:10;;;;;;;5.22;1.85;;;17.60;53.90;;;;;;5094898;28;20189;-74
2023/04/14 10:18:36;;;;;;;6.43;1.60;;;17.60;53.80;;;;;;5094707;28;20166;-71
2023/04/14 10:21:01;;;;;;;3.28;1.42;;;17.60;53.80;;;;;;5093887;28;20587;-73
2023/04/14 10:23:27;;;;;;;5.55;1.55;;;17.60;53.70;;;;;;5092437;28;20180;-70
2023/04/14 10:25:54;;;;;;;6.65;1.80;;;17.60;53.60;;;;;;5094568;28;20664;-73
2023/04/14 10:28:20;;;;;;;4.65;1.65;;;17.60;53.50;;;;;;5093958;28;20170;-74
2023/04/14 10:30:46;;;;;;;3.08;1.60;;;17.70;53.50;;;;;;5093418;28;20627;-79
2023/04/14 10:33:11;;;;;;;4.82;1.60;;;17.70;53.50;;;;;;5093220;28;20201;-80
2023/04/14 10:35:41;;;;;;;3.55;1.30;;;17.60;53.50;;;;;;5093638;28;20204;-75
2023/04/14 10:38:07;;;;;;;2.55;1.60;;;17.60;53.50;;;;;;5095482;28;20223;-74
2023/04/14 10:40:50;;;;;;;1.80;1.27;;;17.60;53.40;;;;;;5094865;28;20182;-75
2023/04/14 10:43:15;;;;;;;2.47;1.15;;;17.60;53.50;;;;;;5094904;28;20174;-73
2023/04/14 10:45:57;;;;;;;2.47;1.45;;;17.60;53.40;;;;;;5095768;28;20197;-76
2023/04/14 10:48:27;;;;;;;2.17;1.40;;;17.70;53.30;;;;;;5094220;28;20170;-73
2023/04/14 10:50:57;;;;;;;4.10;1.30;;;17.50;53.40;;;;;;5094932;28;20580;-76
2023/04/14 10:53:24;;;;;;;3.47;1.48;;;17.50;53.50;;;;;;5094306;28;20193;-73
2023/04/14 10:55:51;;;;;;;4.80;1.50;;;17.60;53.30;;;;;;5095394;28;20174;-73
2023/04/14 10:58:19;;;;;;;2.15;1.55;;;17.70;53.20;;;;;;5073248;28;20178;-74
2023/04/14 11:00:44;;;;;;;3.83;1.70;;;17.70;53.00;;;;;;5075181;28;20185;-78
2023/04/14 11:03:11;;;;;;;3.72;1.83;;;17.70;52.90;;;;;;5074816;28;20561;-75
2023/04/14 11:05:43;;;;;;;3.78;1.58;;;17.60;53.10;;;;;;5074222;28;20221;-74
2023/04/14 11:08:13;;;;;;;2.38;1.30;;;17.50;53.30;;;;;;5074946;28;20182;-72
2023/04/14 11:10:40;;;;;;;2.25;1.20;;;17.50;53.30;;;;;;5074377;28;20182;-72
2023/04/14 11:13:09;;;;;;;3.45;1.33;;;17.50;53.30;;;;;;5073548;28;20175;-72
2023/04/14 11:16:11;;;;;;;4.03;1.77;;;17.60;53.00;;;;;;5073522;28;20175;-73
2023/04/14 11:18:41;;;;;;;3.33;1.45;;;17.70;53.40;;;;;;5032170;28;20256;-72
2023/04/14 11:21:08;;;;;;;1.42;1.20;;;17.70;52.70;;;;;;5066579;28;20218;-73
2023/04/14 11:23:34;;;;;;;2.63;1.45;;;17.80;52.50;;;;;;5074917;28;20179;-72
2023/04/14 11:25:59;;;;;;;1.75;1.25;;;17.80;53.10;;;;;;5073942;28;20210;-73
2023/04/14 11:28:33;;;;;;;2.10;1.27;;;17.80;52.30;;;;;;5073407;28;20194;-73
2023/04/14 11:30:59;;;;;;;2.33;1.40;;;17.90;52.30;;;;;;5074702;28;20534;-77
2023/04/14 11:33:29;;;;;;;4.00;1.33;;;17.90;52.30;;;;;;5073693;28;20625;-76
2023/04/14 11:35:56;;;;;;;2.25;1.25;;;17.90;52.20;;;;;;5074434;28;20178;-76
2023/04/14 11:38:21;;;;;;;3.65;1.35;;;17.90;52.00;;;;;;5073076;28;20196;-73
2023/04/14 11:40:50;;;;;;;1.77;1.38;;;17.80;52.10;;;;;;5072747;28;20174;-76
2023/04/14 11:43:16;;;;;;;2.55;1.10;;;17.80;52.30;;;;;;5074312;28;20200;-75
2023/04/14 11:45:42;;;;;;;3.15;1.25;;;17.70;52.20;;;;;;5072617;28;20194;-76
2023/04/14 11:48:09;;;;;;;1.67;1.00;;;17.70;52.20;;;;;;5074069;28;20178;-76
2023/04/14 11:50:37;;;;;;;2.33;1.30;;;17.70;52.20;;;;;;5074306;28;20189;-74
2023/04/14 11:53:09;;;;;;;2.95;1.30;;;17.80;52.00;;;;;;5073495;28;20178;-73
2023/04/14 11:55:35;;;;;;;2.15;1.13;;;17.90;51.80;;;;;;5074353;28;20228;-76
2023/04/14 11:58:01;;;;;;;1.92;1.10;;;17.90;51.70;;;;;;5092543;28;20174;-77
2023/04/14 12:00:26;;;;;;;2.47;1.38;;;18.00;51.60;;;;;;5092304;28;20673;-76
2023/04/14 12:02:52;;;;;;;2.35;1.30;;;18.00;51.50;;;;;;5094275;28;20243;-76
2023/04/14 12:05:29;;;;;;;1.63;1.10;;;18.10;51.50;;;;;;5093742;28;20201;-73
2023/04/14 12:07:58;;;;;;;3.28;1.48;;;18.00;51.40;;;;;;5093518;28;20256;-73
2023/04/14 12:10:23;;;;;;;3.50;1.23;;;18.10;51.40;;;;;;5093691;28;20188;-72
2023/04/14 12:12:49;;;;;;;2.13;1.27;;;18.10;51.40;;;;;;5094063;28;20181;-74
2023/04/14 12:15:15;;;;;;;2.45;1.20;;;18.10;51.30;;;;;;5092853;28;20637;-74
2023/04/14 12:17:40;;;;;;;5.07;1.70;;;18.10;51.30;;;;;;5094152;28;20180;-74
2023/04/14 12:20:13;;;;;;;2.25;1.40;;;18.20;51.30;;;;;;5092341;28;20244;-74
2023/04/14 12:22:38;;;;;;;2.15;1.20;;;18.20;51.30;;;;;;5093086;28;20683;-71
2023/04/14 12:25:11;;;;;;;2.90;1.63;;;18.20;51.20;;;;;;5093673;28;20185;-76
2023/04/14 12:27:37;;;;;;;2.63;1.35;;;18.10;51.10;;;;;;5093739;28;20227;-75
2023/04/14 12:30:04;;;;;;;2.88;1.10;;;18.20;51.10;;;;;;5091822;28;20174;-79
2023/04/14 12:32:40;;;;;;;1.55;1.17;;;18.20;51.10;;;;;;5092555;28;20214;-76
2023/04/14 12:35:05;;;;;;;2.00;1.00;;;18.20;51.00;;;;;;5092702;28;20177;-78
2023/04/14 12:37:32;;;;;;;3.10;1.20;;;18.20;50.90;;;;;;5093734;28;20165;-76
2023/04/14 12:39:59;;;;;;;3.80;1.27;;;18.30;50.90;;;;;;5093296;28;20553;-74
2023/04/14 12:42:25;;;;;;;3.13;1.35;;;18.30;50.90;;;;;;5092430;28;20209;-73
2023/04/14 12:44:54;;;;;;;2.55;1.20;;;18.20;50.90;;;;;;5093371;28;20264;-77
2023/04/14 12:47:27;;;;;;;2.17;1.17;;;18.20;50.90;;;;;;5093055;28;20177;-77
2023/04/14 12:49:54;;;;;;;1.80;1.13;;;18.00;51.10;;;;;;5092818;28;20260;-76